createdAt,value
2017-03-16T00:00:03.455Z,1029.08
2017-03-16T00:05:02.787Z,1029.02
2017-03-16T00:10:03.459Z,1028.95
2017-03-16T00:15:03.205Z,1028.85
2017-03-16T00:20:02.932Z,1028.89
2017-03-16T00:25:03.659Z,1028.85
2017-03-16T00:30:03.197Z,1028.82
2017-03-16T00:35:02.856Z,1028.77
2017-03-16T00:40:03.647Z,1028.74
2017-03-16T00:45:03.279Z,1028.65
2017-03-16T00:50:03.017Z,1028.63
2017-03-16T00:55:02.866Z,1028.6
2017-03-16T01:00:03.417Z,1028.44
2017-03-16T01:05:03.102Z,1028.43
2017-03-16T01:10:02.795Z,1028.37
2017-03-16T01:15:03.522Z,1028.37
2017-03-16T01:20:03.143Z,1028.3
2017-03-16T01:25:02.656Z,1028.2
2017-03-16T01:30:03.356Z,1028.14
2017-03-16T01:35:02.979Z,1028.1
2017-03-16T01:40:02.688Z,1027.99
2017-03-16T01:45:03.360Z,1027.91
2017-03-16T01:50:03.077Z,1027.81
2017-03-16T01:55:02.716Z,1027.79
2017-03-16T02:00:03.367Z,1027.73
2017-03-16T02:05:03.119Z,1027.73
2017-03-16T02:10:02.889Z,1027.66
2017-03-16T02:15:03.542Z,1027.6
2017-03-16T02:20:03.287Z,1027.58
2017-03-16T02:25:02.981Z,1027.6
2017-03-16T02:30:03.621Z,1027.54
2017-03-16T02:35:03.354Z,1027.5
2017-03-16T02:40:02.937Z,1027.48
2017-03-16T02:45:03.599Z,1027.5
2017-03-16T02:50:03.366Z,1027.49
2017-03-16T02:55:02.934Z,1027.49
2017-03-16T03:00:03.604Z,1027.48
2017-03-16T03:05:03.350Z,1027.46
2017-03-16T03:10:03.016Z,1027.48
2017-03-16T03:15:03.687Z,1027.43
2017-03-16T03:20:03.416Z,1027.32
2017-03-16T03:25:03.201Z,1027.23
2017-03-16T03:30:02.920Z,1027.26
2017-03-16T03:35:03.645Z,1027.15
2017-03-16T03:40:03.370Z,1027.17
2017-03-16T03:45:02.952Z,1027.16
2017-03-16T03:50:03.595Z,1027.19
2017-03-16T03:55:03.253Z,1027.13
2017-03-16T04:00:02.889Z,1027.06
2017-03-16T04:05:03.663Z,1027.08
2017-03-16T04:10:03.488Z,1026.99
2017-03-16T04:15:03.084Z,1026.94
2017-03-16T04:20:02.754Z,1026.88
2017-03-16T04:25:03.411Z,1026.9
2017-03-16T04:30:02.961Z,1026.87
2017-03-16T04:35:03.539Z,1026.8
2017-03-16T04:40:03.348Z,1026.85
2017-03-16T04:45:03.016Z,1026.75
2017-03-16T04:50:03.648Z,1026.72
2017-03-16T04:55:03.264Z,1026.72
2017-03-16T05:00:02.834Z,1026.71
2017-03-16T05:05:03.542Z,1026.73
2017-03-16T05:10:03.466Z,1026.75
2017-03-16T05:15:03.004Z,1026.72
2017-03-16T05:20:02.711Z,1026.77
2017-03-16T05:25:03.321Z,1026.77
2017-03-16T05:30:03.017Z,1026.82
2017-03-16T05:35:03.626Z,1026.79
2017-03-16T05:40:03.278Z,1026.75
2017-03-16T05:45:02.855Z,1026.71
2017-03-16T05:50:03.475Z,1026.77
2017-03-16T05:55:03.051Z,1026.76
2017-03-16T06:00:02.694Z,1026.79
2017-03-16T06:05:03.317Z,1026.7
2017-03-16T06:10:03.013Z,1026.65
2017-03-16T06:15:02.835Z,1026.63
2017-03-16T06:20:03.529Z,1026.66
2017-03-16T06:25:03.266Z,1026.73
2017-03-16T06:30:02.939Z,1026.69
2017-03-16T06:35:03.676Z,1026.76
2017-03-16T06:40:03.425Z,1026.74
2017-03-16T06:45:03.134Z,1026.84
2017-03-16T06:50:02.693Z,1026.78
2017-03-16T06:55:03.498Z,1026.72
2017-03-16T07:00:03.144Z,1026.73
2017-03-16T07:05:02.785Z,1026.67
2017-03-16T07:10:03.595Z,1026.59
2017-03-16T07:15:03.126Z,1026.63
2017-03-16T07:20:02.852Z,1026.64
2017-03-16T07:25:03.572Z,1026.56
2017-03-16T07:30:03.221Z,1026.54
2017-03-16T07:35:02.877Z,1026.63
2017-03-16T07:40:02.744Z,1026.63
2017-03-16T07:45:03.396Z,1026.67
2017-03-16T07:50:03.177Z,1026.63
2017-03-16T07:55:02.787Z,1026.64
2017-03-16T08:00:03.535Z,1026.67
2017-03-16T08:05:03.144Z,1026.68
2017-03-16T08:10:03.008Z,1026.61
2017-03-16T08:15:02.693Z,1026.47
2017-03-16T08:20:03.332Z,1026.42
2017-03-16T08:25:02.995Z,1026.39
2017-03-16T08:30:02.880Z,1026.34
2017-03-16T08:35:03.482Z,1026.39
2017-03-16T08:40:02.710Z,1026.28
2017-03-16T08:45:03.301Z,1026.19
2017-03-16T08:50:02.991Z,1026.2
2017-03-16T08:55:02.743Z,1026.16
2017-03-16T09:00:03.374Z,1026.09
2017-03-16T09:05:03.035Z,1026.1
2017-03-16T09:10:02.717Z,1026.01
2017-03-16T09:15:03.305Z,1026.04
2017-03-16T09:20:02.857Z,1026
2017-03-16T09:25:03.578Z,1026.08
2017-03-16T09:30:03.417Z,1026.06
2017-03-16T09:35:03.037Z,1026.04
2017-03-16T09:40:02.731Z,1025.96
2017-03-16T09:45:03.422Z,1025.96
2017-03-16T09:50:03.161Z,1026
2017-03-16T09:55:02.770Z,1025.9
2017-03-16T10:00:03.439Z,1025.81
2017-03-16T10:05:03.090Z,1025.77
2017-03-16T10:10:02.845Z,1025.73
2017-03-16T10:15:02.712Z,1025.67
2017-03-16T10:20:03.320Z,1025.62
2017-03-16T10:25:03.036Z,1025.47
2017-03-16T10:30:02.668Z,1025.41
2017-03-16T10:35:03.324Z,1025.28
2017-03-16T10:40:03.069Z,1025.21
2017-03-16T10:45:02.813Z,1025.17
2017-03-16T10:50:03.436Z,1025.08
2017-03-16T10:55:03.151Z,1025.06
2017-03-16T11:00:02.799Z,1024.94
2017-03-16T11:05:03.639Z,1024.83
2017-03-16T11:10:03.453Z,1024.84
2017-03-16T11:15:03.091Z,1024.64
2017-03-16T11:20:02.710Z,1024.72
2017-03-16T11:25:03.338Z,1024.49
2017-03-16T11:30:02.857Z,1024.43
2017-03-16T11:35:03.488Z,1024.33
2017-03-16T11:40:03.141Z,1024.17
2017-03-16T11:45:02.661Z,1024.16
2017-03-16T11:50:03.231Z,1024.07
2017-03-16T11:55:03.134Z,1023.9
2017-03-16T12:00:02.756Z,1023.8
2017-03-16T12:05:03.410Z,1023.7
2017-03-16T12:10:03.078Z,1023.66
2017-03-16T12:15:02.675Z,1023.56
2017-03-16T12:20:03.389Z,1023.36
2017-03-16T12:25:03.049Z,1023.23
2017-03-16T12:30:02.753Z,1023.16
2017-03-16T12:35:03.365Z,1023.09
2017-03-16T12:40:03.145Z,1023.03
2017-03-16T12:45:03.148Z,1022.82
2017-03-16T12:50:03.082Z,1022.9
2017-03-16T12:55:03.469Z,1022.72
2017-03-16T13:00:02.911Z,1022.67
2017-03-16T13:05:03.318Z,1022.45
2017-03-16T13:10:02.644Z,1022.47
2017-03-16T13:15:03.499Z,1022.24
2017-03-16T13:20:03.257Z,1022.32
2017-03-16T13:25:02.828Z,1022.19
2017-03-16T13:30:03.455Z,1022.01
2017-03-16T13:35:03.538Z,1022.03
2017-03-16T13:40:03.390Z,1021.87
2017-03-16T13:45:03.497Z,1021.8
2017-03-16T13:50:03.281Z,1021.62
2017-03-16T13:55:02.770Z,1021.52
2017-03-16T14:00:03.648Z,1021.6
2017-03-16T14:05:03.287Z,1021.37
2017-03-16T14:10:02.942Z,1021.23
2017-03-16T14:15:02.799Z,1021.09
2017-03-16T14:20:02.792Z,1020.96
2017-03-16T14:25:03.115Z,1021.03
2017-03-16T14:30:03.247Z,1020.88
2017-03-16T14:35:02.848Z,1020.76
2017-03-16T14:40:03.518Z,1020.69
2017-03-16T14:45:03.650Z,1020.67
2017-03-16T14:50:03.401Z,1020.67
2017-03-16T14:55:03.182Z,1020.44
2017-03-16T15:00:03.504Z,1020.39
2017-03-16T15:05:03.201Z,1020.33
2017-03-16T15:10:03.412Z,1020.31
2017-03-16T15:15:03.516Z,1020.27
2017-03-16T15:20:02.688Z,1020.12
2017-03-16T15:25:02.934Z,1020.01
2017-03-16T15:30:03.290Z,1019.99
2017-03-16T15:35:03.029Z,1019.86
2017-03-16T15:40:03.406Z,1019.65
2017-03-16T15:45:03.636Z,1019.7
2017-03-16T15:50:03.467Z,1019.57
2017-03-16T15:55:03.595Z,1019.47
2017-03-16T16:00:03.594Z,1019.42
2017-03-16T16:05:03.543Z,1019.34
2017-03-16T16:10:02.681Z,1019.22
2017-03-16T16:15:02.703Z,1019.29
2017-03-16T16:20:03.256Z,1019.15
2017-03-16T16:25:03.056Z,1018.94
2017-03-16T16:30:03.193Z,1018.8
2017-03-16T16:35:03.286Z,1018.83
2017-03-16T16:40:03.134Z,1018.73
2017-03-16T16:45:02.796Z,1018.63
2017-03-16T16:50:02.790Z,1018.5
2017-03-16T16:55:03.215Z,1018.45
2017-03-16T17:00:03.591Z,1018.53
2017-03-16T17:05:02.831Z,1018.49
2017-03-16T17:10:03.129Z,1018.46
2017-03-16T17:15:02.716Z,1018.38
2017-03-16T17:20:03.212Z,1018.34
2017-03-16T17:25:03.505Z,1018.17
2017-03-16T17:30:03.265Z,1018.05
2017-03-16T17:35:03.111Z,1018.05
2017-03-16T17:40:03.017Z,1018.02
2017-03-16T17:45:03.648Z,1017.98
2017-03-16T17:50:03.604Z,1017.97
2017-03-16T18:40:03.544Z,1017.63
2017-03-16T18:45:03.305Z,1017.56
2017-03-16T18:50:03.350Z,1017.52
2017-03-16T18:55:03.040Z,1017.46
2017-03-16T19:00:02.995Z,1017.35
2017-03-16T19:05:03.743Z,1017.26
2017-03-16T19:10:03.562Z,1017.32
2017-03-16T19:15:03.360Z,1017.19
2017-03-16T19:20:02.988Z,1017.18
2017-03-16T19:25:02.700Z,1017.09
2017-03-16T19:30:03.624Z,1016.99
2017-03-16T19:35:03.325Z,1016.98
2017-03-16T19:40:03.213Z,1016.97
2017-03-16T19:45:02.934Z,1016.85
2017-03-16T19:50:02.940Z,1016.76
2017-03-16T19:55:02.939Z,1016.74
2017-03-16T20:00:03.723Z,1016.7
2017-03-16T20:05:03.520Z,1016.79
2017-03-16T20:10:03.389Z,1016.71
2017-03-16T20:15:03.160Z,1016.78
2017-03-16T20:20:02.831Z,1016.87
2017-03-16T20:25:03.561Z,1016.82
2017-03-16T20:30:03.163Z,1016.75
2017-03-16T20:35:02.833Z,1016.78
2017-03-16T20:40:03.564Z,1016.74
2017-03-16T20:45:03.285Z,1016.81
2017-03-16T20:50:03.106Z,1016.63
2017-03-16T20:55:02.732Z,1016.54
2017-03-16T21:00:03.342Z,1016.45
2017-03-16T21:05:02.997Z,1016.32
2017-03-16T21:10:03.652Z,1016.23
2017-03-16T21:15:03.337Z,1016.21
2017-03-16T21:20:03.109Z,1016.17
2017-03-16T21:25:02.742Z,1016.18
2017-03-16T21:30:03.466Z,1016.07
2017-03-16T21:35:03.092Z,1016.12
2017-03-16T21:40:02.826Z,1016.11
2017-03-16T21:45:03.541Z,1016.19
2017-03-16T21:50:03.241Z,1016.23
2017-03-16T21:55:03.000Z,1016.25
2017-03-16T22:00:02.747Z,1016.17
2017-03-16T22:05:03.300Z,1016.1
2017-03-16T22:10:02.918Z,1016.08
2017-03-16T22:15:03.512Z,1015.98
2017-03-16T22:20:03.341Z,1015.81
2017-03-16T22:25:03.041Z,1015.86
2017-03-16T22:30:02.920Z,1015.75
2017-03-16T22:35:03.557Z,1015.68
2017-03-16T22:40:03.407Z,1015.62
2017-03-16T22:45:03.164Z,1015.54
2017-03-16T22:50:02.777Z,1015.51
2017-03-16T22:55:03.445Z,1015.54
2017-03-16T23:00:03.023Z,1015.44
2017-03-16T23:05:02.814Z,1015.47
2017-03-16T23:10:03.608Z,1015.41
2017-03-16T23:15:03.401Z,1015.41
2017-03-16T23:20:03.033Z,1015.35
2017-03-16T23:25:03.605Z,1015.21
2017-03-16T23:30:03.209Z,1015.32
2017-03-16T23:35:02.835Z,1015.25
2017-03-16T23:40:03.499Z,1015.12
2017-03-16T23:45:03.159Z,1015.1
2017-03-16T23:50:02.827Z,1015.03
2017-03-16T23:55:03.386Z,1015.04
